odezhda-master.ru alexa rank chart, odezhda-master.ru alexa rank daily changes

odezhda-master.ru alexa rank chart, odezhda-master.ru alexa rank daily changes

odezhda-master.ru
Actual rank:
76 352

RANK HISTORY

Date Rank Diff
2018/11/20 76 352 -8 434
2018/11/19 84 786 +16 338
2018/11/18 68 448 -22 429
2018/11/17 90 877 +13 929
2018/11/16 76 948 -9 015
2018/11/15 85 963 +15 365
2018/11/14 70 598 +13 680
2018/11/13 56 918 -17 538
2018/11/12 74 456 -9 689
2018/11/11 84 145 -2 055
2018/11/10 86 200 +8 829
2018/11/09 77 371 +5 983
2018/11/08 71 388 -10 992
2018/11/07 82 380 +17 122
2018/11/06 65 258 -4 875
2018/11/05 70 133 -5 333
2018/11/04 75 466 -10 153
2018/11/03 85 619 -4 256
2018/11/02 89 875 +13 587
2018/11/01 76 288 -23 184
2018/10/31 99 472 +18 694
2018/10/30 80 778 +12 075
2018/10/29 68 703 +1 964
2018/10/28 66 739 +13 161
2018/10/27 53 578 -23 279
2018/10/26 76 857 +4 789
2018/10/25 72 068 -981
2018/10/24 73 049 -5 690
2018/10/23 78 739 -5 259
2018/10/22 83 998 -1 968
2018/10/21 85 966 -10 131
2018/10/20 96 097 +12 004
2018/10/19 84 093 +7 163
2018/10/18 76 930 -3 676
2018/10/17 80 606 -1 631
2018/10/16 82 237 +7 238
2018/10/15 74 999 -3 724
2018/10/14 78 723 +8 026
2018/10/13 70 697 -1 229
2018/10/12 71 926 -7 203
2018/10/11 79 129 +13 208
2018/10/10 65 921 +1 661
2018/10/09 64 260 -6 038
2018/10/08 70 298 +977
2018/10/07 69 321 -15 551
2018/10/06 84 872 +7 862
2018/10/05 77 010 -5 340
2018/10/04 82 350 +7 026
2018/10/03 75 324 +4 946
2018/10/02 70 378 -10 020
2018/10/01 80 398 -1 397
2018/09/30 81 795 +9 471
2018/09/29 72 324 -1 601
2018/09/28 73 925 -5 284
2018/09/27 79 209 -3 983
2018/09/26 83 192 +8 536
2018/09/25 74 656 -3 900
2018/09/24 78 556 +1 061
2018/09/23 77 495 -8 173
2018/09/22 85 668 +8 153
2018/09/21 77 515

WIDGET FOR YOUR SITE

DOMAINS WITH THE NEAREST RANK

Domain Rank
jiancw.com 76 347
amazingcool.xyz 76 348
bitchmomporn.com 76 349
templated.co 76 350
ritmoromantica.pe 76 351
odezhda-master.ru 76 352
slonodrom.ru 76 353
gilli-tv.info 76 354
theanarchistlibrary.org 76 355
intopic.it 76 356
dasiview.com 76 357

DOMAINS WITH THE NEAREST RANK BY TLD .ru

Domain Rank
viperson.ru 76 295
reklama-content.ru 76 325
riadagestan.ru 76 330
bio-faq.ru 76 341
pohudejkina.ru 76 346
odezhda-master.ru 76 352
slonodrom.ru 76 353
russchooljp.ru 76 361
randewoo.ru 76 364
ihappymama.ru 76 386
4geo.ru 76 406